sensor_id;sensor_type;location;lat;lon;timestamp;temperature;humidity
9482;DHT22;4779;48.062;11.672;2024-02-26T00:02:19;3.80;99.90
9482;DHT22;4779;48.062;11.672;2024-02-26T00:04:46;3.80;99.90
9482;DHT22;4779;48.062;11.672;2024-02-26T00:07:13;3.80;99.90
9482;DHT22;4779;48.062;11.672;2024-02-26T00:09:40;3.70;99.90
9482;DHT22;4779;48.062;11.672;2024-02-26T00:12:07;3.80;99.90
9482;DHT22;4779;48.062;11.672;2024-02-26T00:14:36;3.80;99.90
9482;DHT22;4779;48.062;11.672;2024-02-26T00:17:03;3.80;99.90
9482;DHT22;4779;48.062;11.672;2024-02-26T00:19:30;3.80;99.90
9482;DHT22;4779;48.062;11.672;2024-02-26T00:21:57;3.70;99.90
9482;DHT22;4779;48.062;11.672;2024-02-26T00:24:25;3.60;99.90
9482;DHT22;4779;48.062;11.672;2024-02-26T00:26:52;3.60;99.90
9482;DHT22;4779;48.062;11.672;2024-02-26T00:29:20;3.60;99.90
9482;DHT22;4779;48.062;11.672;2024-02-26T00:31:48;3.70;99.90
9482;DHT22;4779;48.062;11.672;2024-02-26T00:34:15;3.70;99.90
9482;DHT22;4779;48.062;11.672;2024-02-26T00:36:42;3.60;99.90
9482;DHT22;4779;48.062;11.672;2024-02-26T00:39:11;3.60;99.90
9482;DHT22;4779;48.062;11.672;2024-02-26T00:41:39;3.60;99.90
9482;DHT22;4779;48.062;11.672;2024-02-26T00:44:06;3.60;99.90
9482;DHT22;4779;48.062;11.672;2024-02-26T00:46:33;3.60;99.90
9482;DHT22;4779;48.062;11.672;2024-02-26T00:49:02;3.50;99.90
9482;DHT22;4779;48.062;11.672;2024-02-26T00:51:29;3.50;99.90
9482;DHT22;4779;48.062;11.672;2024-02-26T00:53:56;3.50;99.90
9482;DHT22;4779;48.062;11.672;2024-02-26T00:56:23;3.50;99.90
9482;DHT22;4779;48.062;11.672;2024-02-26T00:58:50;3.40;99.90
9482;DHT22;4779;48.062;11.672;2024-02-26T01:01:18;3.40;99.90
9482;DHT22;4779;48.062;11.672;2024-02-26T01:03:45;3.40;99.90
9482;DHT22;4779;48.062;11.672;2024-02-26T01:06:14;3.20;99.90
9482;DHT22;4779;48.062;11.672;2024-02-26T01:08:41;3.20;99.90
9482;DHT22;4779;48.062;11.672;2024-02-26T01:11:08;3.20;99.90
9482;DHT22;4779;48.062;11.672;2024-02-26T01:13:35;3.20;99.90
9482;DHT22;4779;48.062;11.672;2024-02-26T01:16:02;3.30;99.90
9482;DHT22;4779;48.062;11.672;2024-02-26T01:18:29;3.30;99.90
9482;DHT22;4779;48.062;11.672;2024-02-26T01:20:56;3.20;99.90
9482;DHT22;4779;48.062;11.672;2024-02-26T01:23:24;3.10;99.90
9482;DHT22;4779;48.062;11.672;2024-02-26T01:25:52;3.00;99.90
9482;DHT22;4779;48.062;11.672;2024-02-26T01:28:19;3.00;99.90
9482;DHT22;4779;48.062;11.672;2024-02-26T01:30:46;3.10;99.90
9482;DHT22;4779;48.062;11.672;2024-02-26T01:33:13;3.10;99.90
9482;DHT22;4779;48.062;11.672;2024-02-26T01:35:40;3.10;99.90
9482;DHT22;4779;48.062;11.672;2024-02-26T01:38:07;3.10;99.90
9482;DHT22;4779;48.062;11.672;2024-02-26T01:40:35;3.10;99.90
9482;DHT22;4779;48.062;11.672;2024-02-26T01:43:02;3.10;99.90
9482;DHT22;4779;48.062;11.672;2024-02-26T01:45:29;3.10;99.90
9482;DHT22;4779;48.062;11.672;2024-02-26T01:47:57;3.10;99.90
9482;DHT22;4779;48.062;11.672;2024-02-26T01:50:24;3.10;99.90
9482;DHT22;4779;48.062;11.672;2024-02-26T01:52:53;3.10;99.90
9482;DHT22;4779;48.062;11.672;2024-02-26T01:55:21;3.00;99.90
9482;DHT22;4779;48.062;11.672;2024-02-26T01:57:52;2.90;99.90
9482;DHT22;4779;48.062;11.672;2024-02-26T02:00:20;2.80;99.90
9482;DHT22;4779;48.062;11.672;2024-02-26T02:02:47;2.90;99.90
9482;DHT22;4779;48.062;11.672;2024-02-26T02:05:15;2.80;99.90
9482;DHT22;4779;48.062;11.672;2024-02-26T02:07:44;2.80;99.90
9482;DHT22;4779;48.062;11.672;2024-02-26T02:10:12;2.60;99.90
9482;DHT22;4779;48.062;11.672;2024-02-26T02:12:39;2.50;99.90
9482;DHT22;4779;48.062;11.672;2024-02-26T02:15:09;2.60;99.90
9482;DHT22;4779;48.062;11.672;2024-02-26T02:17:36;2.70;99.90
9482;DHT22;4779;48.062;11.672;2024-02-26T02:20:03;2.70;99.90
9482;DHT22;4779;48.062;11.672;2024-02-26T02:22:32;2.60;99.90
9482;DHT22;4779;48.062;11.672;2024-02-26T02:24:59;2.70;99.90
9482;DHT22;4779;48.062;11.672;2024-02-26T02:27:27;2.70;99.90
9482;DHT22;4779;48.062;11.672;2024-02-26T02:29:55;2.70;99.90
9482;DHT22;4779;48.062;11.672;2024-02-26T02:32:22;2.80;99.90
9482;DHT22;4779;48.062;11.672;2024-02-26T02:34:49;2.90;99.90
9482;DHT22;4779;48.062;11.672;2024-02-26T02:37:17;3.00;99.90
9482;DHT22;4779;48.062;11.672;2024-02-26T02:39:45;2.90;99.90
9482;DHT22;4779;48.062;11.672;2024-02-26T02:42:13;2.90;99.90
9482;DHT22;4779;48.062;11.672;2024-02-26T02:44:40;2.80;99.90
9482;DHT22;4779;48.062;11.672;2024-02-26T02:47:08;2.90;99.90
9482;DHT22;4779;48.062;11.672;2024-02-26T02:49:35;2.80;99.90
9482;DHT22;4779;48.062;11.672;2024-02-26T02:52:02;2.80;99.90
9482;DHT22;4779;48.062;11.672;2024-02-26T02:54:29;2.90;99.90
9482;DHT22;4779;48.062;11.672;2024-02-26T02:56:58;2.90;99.90
9482;DHT22;4779;48.062;11.672;2024-02-26T02:59:25;3.00;99.90
9482;DHT22;4779;48.062;11.672;2024-02-26T03:01:52;3.00;99.90
9482;DHT22;4779;48.062;11.672;2024-02-26T03:04:19;3.00;99.90
9482;DHT22;4779;48.062;11.672;2024-02-26T03:06:46;3.00;99.90
9482;DHT22;4779;48.062;11.672;2024-02-26T03:09:13;2.90;99.90
9482;DHT22;4779;48.062;11.672;2024-02-26T03:11:40;3.00;99.90
9482;DHT22;4779;48.062;11.672;2024-02-26T03:14:09;3.00;99.90
9482;DHT22;4779;48.062;11.672;2024-02-26T03:16:36;2.90;99.90
9482;DHT22;4779;48.062;11.672;2024-02-26T03:19:03;2.90;99.90
9482;DHT22;4779;48.062;11.672;2024-02-26T03:21:30;2.90;99.90
9482;DHT22;4779;48.062;11.672;2024-02-26T03:23:57;2.90;99.90
9482;DHT22;4779;48.062;11.672;2024-02-26T03:26:24;2.90;99.90
9482;DHT22;4779;48.062;11.672;2024-02-26T03:28:51;2.80;99.90
9482;DHT22;4779;48.062;11.672;2024-02-26T03:31:22;2.80;99.90
9482;DHT22;4779;48.062;11.672;2024-02-26T03:33:49;2.70;99.90
9482;DHT22;4779;48.062;11.672;2024-02-26T03:36:16;2.70;99.90
9482;DHT22;4779;48.062;11.672;2024-02-26T03:38:44;2.70;99.90
9482;DHT22;4779;48.062;11.672;2024-02-26T03:41:11;2.70;99.90
9482;DHT22;4779;48.062;11.672;2024-02-26T03:43:38;2.60;99.90
9482;DHT22;4779;48.062;11.672;2024-02-26T03:46:07;2.50;99.90
9482;DHT22;4779;48.062;11.672;2024-02-26T03:48:36;2.60;99.90
9482;DHT22;4779;48.062;11.672;2024-02-26T03:51:03;2.60;99.90
9482;DHT22;4779;48.062;11.672;2024-02-26T03:53:30;2.70;99.90
9482;DHT22;4779;48.062;11.672;2024-02-26T03:55:57;2.80;99.90
9482;DHT22;4779;48.062;11.672;2024-02-26T03:58:24;2.80;99.90
9482;DHT22;4779;48.062;11.672;2024-02-26T04:00:51;2.80;99.90
9482;DHT22;4779;48.062;11.672;2024-02-26T04:03:18;2.80;99.90
9482;DHT22;4779;48.062;11.672;2024-02-26T04:05:47;2.80;99.90
9482;DHT22;4779;48.062;11.672;2024-02-26T04:08:14;2.80;99.90
9482;DHT22;4779;48.062;11.672;2024-02-26T04:10:41;2.80;99.90
9482;DHT22;4779;48.062;11.672;2024-02-26T04:13:08;2.90;99.90
9482;DHT22;4779;48.062;11.672;2024-02-26T04:15:35;2.80;99.90
9482;DHT22;4779;48.062;11.672;2024-02-26T04:18:02;2.80;99.90
9482;DHT22;4779;48.062;11.672;2024-02-26T04:20:29;2.60;99.90
9482;DHT22;4779;48.062;11.672;2024-02-26T04:22:58;2.60;99.90
9482;DHT22;4779;48.062;11.672;2024-02-26T04:25:25;2.60;99.90
9482;DHT22;4779;48.062;11.672;2024-02-26T04:27:52;2.60;99.90
9482;DHT22;4779;48.062;11.672;2024-02-26T04:30:20;2.50;99.90
9482;DHT22;4779;48.062;11.672;2024-02-26T04:32:47;2.40;99.90
9482;DHT22;4779;48.062;11.672;2024-02-26T04:35:14;2.40;99.90
9482;DHT22;4779;48.062;11.672;2024-02-26T04:37:41;2.50;99.90
9482;DHT22;4779;48.062;11.672;2024-02-26T04:40:10;2.50;99.90
9482;DHT22;4779;48.062;11.672;2024-02-26T04:42:37;2.50;99.90
9482;DHT22;4779;48.062;11.672;2024-02-26T04:45:05;2.50;99.90
9482;DHT22;4779;48.062;11.672;2024-02-26T04:47:33;2.50;99.90
9482;DHT22;4779;48.062;11.672;2024-02-26T04:50:00;2.50;99.90
9482;DHT22;4779;48.062;11.672;2024-02-26T04:52:27;2.50;99.90
9482;DHT22;4779;48.062;11.672;2024-02-26T04:54:54;2.50;99.90
9482;DHT22;4779;48.062;11.672;2024-02-26T04:57:23;2.50;99.90
9482;DHT22;4779;48.062;11.672;2024-02-26T04:59:50;2.60;99.90
9482;DHT22;4779;48.062;11.672;2024-02-26T05:02:17;2.60;99.90
9482;DHT22;4779;48.062;11.672;2024-02-26T05:04:44;2.60;99.90
9482;DHT22;4779;48.062;11.672;2024-02-26T05:07:11;2.60;99.90
9482;DHT22;4779;48.062;11.672;2024-02-26T05:09:38;2.50;99.90
9482;DHT22;4779;48.062;11.672;2024-02-26T05:12:05;2.50;99.90
9482;DHT22;4779;48.062;11.672;2024-02-26T05:14:34;2.50;99.90
9482;DHT22;4779;48.062;11.672;2024-02-26T05:17:01;2.50;99.90
9482;DHT22;4779;48.062;11.672;2024-02-26T05:19:28;2.50;99.90
9482;DHT22;4779;48.062;11.672;2024-02-26T05:21:55;2.50;99.90
9482;DHT22;4779;48.062;11.672;2024-02-26T05:24:22;2.40;99.90
9482;DHT22;4779;48.062;11.672;2024-02-26T05:26:49;2.50;99.90
9482;DHT22;4779;48.062;11.672;2024-02-26T05:29:16;2.50;99.90
9482;DHT22;4779;48.062;11.672;2024-02-26T05:31:45;2.50;99.90
9482;DHT22;4779;48.062;11.672;2024-02-26T05:34:12;2.50;99.90
9482;DHT22;4779;48.062;11.672;2024-02-26T05:36:39;2.50;99.90
9482;DHT22;4779;48.062;11.672;2024-02-26T05:39:06;2.50;99.90
9482;DHT22;4779;48.062;11.672;2024-02-26T05:41:33;2.60;99.90
9482;DHT22;4779;48.062;11.672;2024-02-26T05:44:00;2.50;99.90
9482;DHT22;4779;48.062;11.672;2024-02-26T05:46:27;2.50;99.90
9482;DHT22;4779;48.062;11.672;2024-02-26T05:48:56;2.50;99.90
9482;DHT22;4779;48.062;11.672;2024-02-26T05:51:23;2.50;99.90
9482;DHT22;4779;48.062;11.672;2024-02-26T05:53:50;2.50;99.90
9482;DHT22;4779;48.062;11.672;2024-02-26T05:56:21;2.50;99.90
9482;DHT22;4779;48.062;11.672;2024-02-26T05:58:50;2.50;99.90
9482;DHT22;4779;48.062;11.672;2024-02-26T06:01:17;2.60;99.90
9482;DHT22;4779;48.062;11.672;2024-02-26T06:03:44;2.60;99.90
9482;DHT22;4779;48.062;11.672;2024-02-26T06:06:13;2.70;99.90
9482;DHT22;4779;48.062;11.672;2024-02-26T06:08:40;2.60;99.90
9482;DHT22;4779;48.062;11.672;2024-02-26T06:11:07;2.60;99.90
9482;DHT22;4779;48.062;11.672;2024-02-26T06:13:34;2.60;99.90
9482;DHT22;4779;48.062;11.672;2024-02-26T06:16:05;2.70;99.90
9482;DHT22;4779;48.062;11.672;2024-02-26T06:18:32;2.70;99.90
9482;DHT22;4779;48.062;11.672;2024-02-26T06:21:09;2.70;99.90
9482;DHT22;4779;48.062;11.672;2024-02-26T06:23:40;2.70;99.90
9482;DHT22;4779;48.062;11.672;2024-02-26T06:26:07;2.70;99.90
9482;DHT22;4779;48.062;11.672;2024-02-26T06:28:35;2.80;99.90
9482;DHT22;4779;48.062;11.672;2024-02-26T06:31:06;2.80;99.90
9482;DHT22;4779;48.062;11.672;2024-02-26T06:33:33;2.90;99.90
9482;DHT22;4779;48.062;11.672;2024-02-26T06:36:00;2.90;99.90
9482;DHT22;4779;48.062;11.672;2024-02-26T06:38:27;3.00;99.90
9482;DHT22;4779;48.062;11.672;2024-02-26T06:40:56;3.00;99.90
9482;DHT22;4779;48.062;11.672;2024-02-26T06:43:23;3.00;99.90
9482;DHT22;4779;48.062;11.672;2024-02-26T06:45:50;3.10;99.90
9482;DHT22;4779;48.062;11.672;2024-02-26T06:48:19;3.20;99.90
9482;DHT22;4779;48.062;11.672;2024-02-26T06:50:46;3.20;99.90
9482;DHT22;4779;48.062;11.672;2024-02-26T06:53:13;3.30;99.90
9482;DHT22;4779;48.062;11.672;2024-02-26T06:55:40;3.30;99.90
9482;DHT22;4779;48.062;11.672;2024-02-26T06:58:09;3.40;99.90
9482;DHT22;4779;48.062;11.672;2024-02-26T07:00:36;3.40;99.90
9482;DHT22;4779;48.062;11.672;2024-02-26T07:03:03;3.40;99.90
9482;DHT22;4779;48.062;11.672;2024-02-26T07:05:30;3.40;99.90
9482;DHT22;4779;48.062;11.672;2024-02-26T07:07:57;3.40;99.90
9482;DHT22;4779;48.062;11.672;2024-02-26T07:10:24;3.50;99.90
9482;DHT22;4779;48.062;11.672;2024-02-26T07:12:51;3.50;99.90
9482;DHT22;4779;48.062;11.672;2024-02-26T07:15:20;3.60;99.90
9482;DHT22;4779;48.062;11.672;2024-02-26T07:17:47;3.70;99.90
9482;DHT22;4779;48.062;11.672;2024-02-26T07:20:15;3.80;99.90
9482;DHT22;4779;48.062;11.672;2024-02-26T07:22:43;3.90;99.90
9482;DHT22;4779;48.062;11.672;2024-02-26T07:25:10;3.90;99.90
9482;DHT22;4779;48.062;11.672;2024-02-26T07:27:39;3.90;99.90
9482;DHT22;4779;48.062;11.672;2024-02-26T07:30:07;4.10;99.90
9482;DHT22;4779;48.062;11.672;2024-02-26T07:32:36;4.20;99.90
9482;DHT22;4779;48.062;11.672;2024-02-26T07:35:04;4.20;99.90
9482;DHT22;4779;48.062;11.672;2024-02-26T07:37:31;4.30;99.90
9482;DHT22;4779;48.062;11.672;2024-02-26T07:39:58;4.40;99.90
9482;DHT22;4779;48.062;11.672;2024-02-26T07:42:25;4.50;99.90
9482;DHT22;4779;48.062;11.672;2024-02-26T07:44:52;4.70;99.90
9482;DHT22;4779;48.062;11.672;2024-02-26T07:47:19;4.80;99.90
9482;DHT22;4779;48.062;11.672;2024-02-26T07:49:48;5.00;99.90
9482;DHT22;4779;48.062;11.672;2024-02-26T07:52:15;5.00;99.90
9482;DHT22;4779;48.062;11.672;2024-02-26T07:54:42;5.10;99.90
9482;DHT22;4779;48.062;11.672;2024-02-26T07:57:09;5.20;99.90
9482;DHT22;4779;48.062;11.672;2024-02-26T07:59:36;5.30;99.90
9482;DHT22;4779;48.062;11.672;2024-02-26T08:02:03;5.30;99.90
9482;DHT22;4779;48.062;11.672;2024-02-26T08:04:31;5.40;99.90
9482;DHT22;4779;48.062;11.672;2024-02-26T08:06:59;5.40;99.90
9482;DHT22;4779;48.062;11.672;2024-02-26T08:09:26;5.30;99.90
9482;DHT22;4779;48.062;11.672;2024-02-26T08:11:53;5.40;99.90
9482;DHT22;4779;48.062;11.672;2024-02-26T08:14:21;5.40;99.90
9482;DHT22;4779;48.062;11.672;2024-02-26T08:16:48;5.40;99.90
9482;DHT22;4779;48.062;11.672;2024-02-26T08:19:15;5.40;99.90
9482;DHT22;4779;48.062;11.672;2024-02-26T08:21:43;5.40;99.90
9482;DHT22;4779;48.062;11.672;2024-02-26T08:24:11;5.30;99.90
9482;DHT22;4779;48.062;11.672;2024-02-26T08:26:38;5.30;99.90
9482;DHT22;4779;48.062;11.672;2024-02-26T08:29:05;5.40;99.90
9482;DHT22;4779;48.062;11.672;2024-02-26T08:31:32;5.40;99.90
9482;DHT22;4779;48.062;11.672;2024-02-26T08:34:03;5.50;99.90
9482;DHT22;4779;48.062;11.672;2024-02-26T08:36:30;5.50;99.90
9482;DHT22;4779;48.062;11.672;2024-02-26T08:38:58;5.60;99.90
9482;DHT22;4779;48.062;11.672;2024-02-26T08:41:26;5.70;99.90
9482;DHT22;4779;48.062;11.672;2024-02-26T08:43:53;5.80;99.90
9482;DHT22;4779;48.062;11.672;2024-02-26T08:46:20;5.80;99.90
9482;DHT22;4779;48.062;11.672;2024-02-26T08:48:47;5.90;99.90
9482;DHT22;4779;48.062;11.672;2024-02-26T08:51:15;6.00;99.90
9482;DHT22;4779;48.062;11.672;2024-02-26T08:53:42;6.10;99.90
9482;DHT22;4779;48.062;11.672;2024-02-26T08:56:09;6.20;99.90
9482;DHT22;4779;48.062;11.672;2024-02-26T08:58:43;6.30;99.90
9482;DHT22;4779;48.062;11.672;2024-02-26T09:01:12;6.40;99.90
9482;DHT22;4779;48.062;11.672;2024-02-26T09:03:39;6.50;99.90
9482;DHT22;4779;48.062;11.672;2024-02-26T09:06:06;6.60;99.90
9482;DHT22;4779;48.062;11.672;2024-02-26T09:08:33;6.70;99.90
9482;DHT22;4779;48.062;11.672;2024-02-26T09:11:01;6.70;99.90
9482;DHT22;4779;48.062;11.672;2024-02-26T09:13:29;6.70;99.90
9482;DHT22;4779;48.062;11.672;2024-02-26T09:15:57;6.80;99.90
9482;DHT22;4779;48.062;11.672;2024-02-26T09:18:25;6.90;99.90
9482;DHT22;4779;48.062;11.672;2024-02-26T09:20:52;7.00;99.90
9482;DHT22;4779;48.062;11.672;2024-02-26T09:23:19;7.10;99.90
9482;DHT22;4779;48.062;11.672;2024-02-26T09:25:47;7.30;99.90
9482;DHT22;4779;48.062;11.672;2024-02-26T09:28:17;7.40;99.90
9482;DHT22;4779;48.062;11.672;2024-02-26T09:30:44;7.60;99.90
9482;DHT22;4779;48.062;11.672;2024-02-26T09:33:13;7.80;99.90
9482;DHT22;4779;48.062;11.672;2024-02-26T09:35:40;8.00;99.90
9482;DHT22;4779;48.062;11.672;2024-02-26T09:38:08;8.20;99.90
9482;DHT22;4779;48.062;11.672;2024-02-26T09:40:35;8.40;99.90
9482;DHT22;4779;48.062;11.672;2024-02-26T09:43:05;8.50;99.90
9482;DHT22;4779;48.062;11.672;2024-02-26T09:45:33;8.50;99.90
9482;DHT22;4779;48.062;11.672;2024-02-26T09:48:03;8.40;99.90
9482;DHT22;4779;48.062;11.672;2024-02-26T09:50:32;8.40;99.90
9482;DHT22;4779;48.062;11.672;2024-02-26T09:53:00;8.30;99.90
9482;DHT22;4779;48.062;11.672;2024-02-26T09:55:28;8.40;99.90
9482;DHT22;4779;48.062;11.672;2024-02-26T09:57:56;8.50;99.90
9482;DHT22;4779;48.062;11.672;2024-02-26T10:00:25;8.50;99.90
9482;DHT22;4779;48.062;11.672;2024-02-26T10:02:55;8.50;99.90
9482;DHT22;4779;48.062;11.672;2024-02-26T10:05:24;8.40;99.90
9482;DHT22;4779;48.062;11.672;2024-02-26T10:07:53;8.20;99.90
9482;DHT22;4779;48.062;11.672;2024-02-26T10:10:22;8.20;99.90
9482;DHT22;4779;48.062;11.672;2024-02-26T10:12:49;8.20;99.90
9482;DHT22;4779;48.062;11.672;2024-02-26T10:15:16;8.20;99.90
9482;DHT22;4779;48.062;11.672;2024-02-26T10:17:43;8.20;99.90
9482;DHT22;4779;48.062;11.672;2024-02-26T10:20:12;8.20;99.90
9482;DHT22;4779;48.062;11.672;2024-02-26T10:22:41;8.20;99.90
9482;DHT22;4779;48.062;11.672;2024-02-26T10:25:15;8.30;99.90
9482;DHT22;4779;48.062;11.672;2024-02-26T10:27:43;8.30;99.90
9482;DHT22;4779;48.062;11.672;2024-02-26T10:30:17;8.40;99.90
9482;DHT22;4779;48.062;11.672;2024-02-26T10:32:45;8.50;99.90
9482;DHT22;4779;48.062;11.672;2024-02-26T10:35:13;8.60;99.90
9482;DHT22;4779;48.062;11.672;2024-02-26T10:37:40;8.60;99.90
9482;DHT22;4779;48.062;11.672;2024-02-26T10:40:11;8.70;99.90
9482;DHT22;4779;48.062;11.672;2024-02-26T10:42:40;8.80;99.90
9482;DHT22;4779;48.062;11.672;2024-02-26T10:45:08;8.90;99.90
9482;DHT22;4779;48.062;11.672;2024-02-26T10:47:36;9.00;99.90
9482;DHT22;4779;48.062;11.672;2024-02-26T10:50:05;9.20;99.90
9482;DHT22;4779;48.062;11.672;2024-02-26T10:52:34;9.40;99.90
9482;DHT22;4779;48.062;11.672;2024-02-26T10:55:19;9.70;99.90
9482;DHT22;4779;48.062;11.672;2024-02-26T10:58:45;10.00;98.40
9482;DHT22;4779;48.062;11.672;2024-02-26T11:01:12;10.30;98.20
9482;DHT22;4779;48.062;11.672;2024-02-26T11:03:43;10.60;97.00
9482;DHT22;4779;48.062;11.672;2024-02-26T11:06:10;10.70;96.80
9482;DHT22;4779;48.062;11.672;2024-02-26T11:08:38;10.70;96.00
9482;DHT22;4779;48.062;11.672;2024-02-26T11:11:06;10.70;95.60
9482;DHT22;4779;48.062;11.672;2024-02-26T11:13:33;11.10;95.30
9482;DHT22;4779;48.062;11.672;2024-02-26T11:16:07;11.50;94.90
9482;DHT22;4779;48.062;11.672;2024-02-26T11:18:35;11.90;94.10
9482;DHT22;4779;48.062;11.672;2024-02-26T11:21:03;12.00;93.30
9482;DHT22;4779;48.062;11.672;2024-02-26T11:23:30;12.00;94.00
9482;DHT22;4779;48.062;11.672;2024-02-26T11:26:01;12.10;93.40
9482;DHT22;4779;48.062;11.672;2024-02-26T11:28:29;12.20;93.30
9482;DHT22;4779;48.062;11.672;2024-02-26T11:30:59;11.90;92.40
9482;DHT22;4779;48.062;11.672;2024-02-26T11:33:28;11.80;94.10
9482;DHT22;4779;48.062;11.672;2024-02-26T11:35:55;11.60;95.00
9482;DHT22;4779;48.062;11.672;2024-02-26T11:38:24;11.60;95.40
9482;DHT22;4779;48.062;11.672;2024-02-26T11:40:53;11.80;95.30
9482;DHT22;4779;48.062;11.672;2024-02-26T11:43:23;12.40;94.20
9482;DHT22;4779;48.062;11.672;2024-02-26T11:45:51;13.20;93.80
9482;DHT22;4779;48.062;11.672;2024-02-26T11:48:23;13.80;92.80
9482;DHT22;4779;48.062;11.672;2024-02-26T11:50:53;14.30;91.60
9482;DHT22;4779;48.062;11.672;2024-02-26T11:53:21;14.90;92.20
9482;DHT22;4779;48.062;11.672;2024-02-26T11:55:48;15.40;91.60
9482;DHT22;4779;48.062;11.672;2024-02-26T11:58:15;15.90;90.70
9482;DHT22;4779;48.062;11.672;2024-02-26T12:00:43;16.60;84.00
9482;DHT22;4779;48.062;11.672;2024-02-26T12:03:10;17.20;84.60
9482;DHT22;4779;48.062;11.672;2024-02-26T12:05:39;17.50;80.50
9482;DHT22;4779;48.062;11.672;2024-02-26T12:08:08;17.60;77.90
9482;DHT22;4779;48.062;11.672;2024-02-26T12:10:36;17.50;77.70
9482;DHT22;4779;48.062;11.672;2024-02-26T12:13:06;17.70;76.70
9482;DHT22;4779;48.062;11.672;2024-02-26T12:15:37;17.90;79.70
9482;DHT22;4779;48.062;11.672;2024-02-26T12:18:06;18.20;75.30
9482;DHT22;4779;48.062;11.672;2024-02-26T12:20:35;18.30;72.80
9482;DHT22;4779;48.062;11.672;2024-02-26T12:23:03;17.90;73.40
9482;DHT22;4779;48.062;11.672;2024-02-26T12:25:32;17.50;76.90
9482;DHT22;4779;48.062;11.672;2024-02-26T12:28:00;17.50;78.20
9482;DHT22;4779;48.062;11.672;2024-02-26T12:30:27;17.00;77.30
9482;DHT22;4779;48.062;11.672;2024-02-26T12:32:57;16.50;74.70
9482;DHT22;4779;48.062;11.672;2024-02-26T12:35:26;16.20;75.80
9482;DHT22;4779;48.062;11.672;2024-02-26T12:37:54;16.20;76.10
9482;DHT22;4779;48.062;11.672;2024-02-26T12:40:22;16.40;75.20
9482;DHT22;4779;48.062;11.672;2024-02-26T12:42:50;16.60;75.00
9482;DHT22;4779;48.062;11.672;2024-02-26T12:45:19;16.30;74.90
9482;DHT22;4779;48.062;11.672;2024-02-26T12:47:46;15.90;75.50
9482;DHT22;4779;48.062;11.672;2024-02-26T12:50:15;15.40;74.90
9482;DHT22;4779;48.062;11.672;2024-02-26T12:52:44;14.90;75.60
9482;DHT22;4779;48.062;11.672;2024-02-26T12:55:15;14.60;76.70
9482;DHT22;4779;48.062;11.672;2024-02-26T12:57:44;14.60;78.60
9482;DHT22;4779;48.062;11.672;2024-02-26T13:00:15;14.60;79.10
9482;DHT22;4779;48.062;11.672;2024-02-26T13:02:43;14.70;74.60
9482;DHT22;4779;48.062;11.672;2024-02-26T13:05:13;14.80;72.10
9482;DHT22;4779;48.062;11.672;2024-02-26T13:07:41;15.00;74.60
9482;DHT22;4779;48.062;11.672;2024-02-26T13:10:09;15.30;75.70
9482;DHT22;4779;48.062;11.672;2024-02-26T13:12:37;15.70;73.30
9482;DHT22;4779;48.062;11.672;2024-02-26T13:15:08;16.10;73.70
9482;DHT22;4779;48.062;11.672;2024-02-26T13:17:41;16.50;72.50
9482;DHT22;4779;48.062;11.672;2024-02-26T13:20:09;16.80;72.10
9482;DHT22;4779;48.062;11.672;2024-02-26T13:22:37;17.00;72.30
9482;DHT22;4779;48.062;11.672;2024-02-26T13:25:05;17.10;72.80
9482;DHT22;4779;48.062;11.672;2024-02-26T13:27:33;17.10;72.90
9482;DHT22;4779;48.062;11.672;2024-02-26T13:30:05;17.20;73.30
9482;DHT22;4779;48.062;11.672;2024-02-26T13:32:33;17.20;73.00
9482;DHT22;4779;48.062;11.672;2024-02-26T13:35:10;17.20;73.00
9482;DHT22;4779;48.062;11.672;2024-02-26T13:37:39;17.00;77.30
9482;DHT22;4779;48.062;11.672;2024-02-26T13:40:07;16.80;77.30
9482;DHT22;4779;48.062;11.672;2024-02-26T13:42:35;16.60;79.40
9482;DHT22;4779;48.062;11.672;2024-02-26T13:45:03;16.70;81.00
9482;DHT22;4779;48.062;11.672;2024-02-26T13:47:32;16.60;79.10
9482;DHT22;4779;48.062;11.672;2024-02-26T13:49:59;16.60;81.10
9482;DHT22;4779;48.062;11.672;2024-02-26T13:52:28;16.50;80.20
9482;DHT22;4779;48.062;11.672;2024-02-26T13:54:57;16.40;81.50
9482;DHT22;4779;48.062;11.672;2024-02-26T13:57:25;16.20;82.80
9482;DHT22;4779;48.062;11.672;2024-02-26T13:59:52;16.00;82.80
9482;DHT22;4779;48.062;11.672;2024-02-26T14:02:19;15.70;83.80
9482;DHT22;4779;48.062;11.672;2024-02-26T14:04:46;15.50;84.50
9482;DHT22;4779;48.062;11.672;2024-02-26T14:07:14;15.30;86.70
9482;DHT22;4779;48.062;11.672;2024-02-26T14:09:44;15.00;86.70
9482;DHT22;4779;48.062;11.672;2024-02-26T14:12:11;14.80;87.60
9482;DHT22;4779;48.062;11.672;2024-02-26T14:14:38;14.50;87.50
9482;DHT22;4779;48.062;11.672;2024-02-26T14:17:08;14.30;88.70
9482;DHT22;4779;48.062;11.672;2024-02-26T14:19:35;14.00;88.90
9482;DHT22;4779;48.062;11.672;2024-02-26T14:22:03;13.70;89.80
9482;DHT22;4779;48.062;11.672;2024-02-26T14:24:29;13.40;90.20
9482;DHT22;4779;48.062;11.672;2024-02-26T14:26:58;13.20;90.80
9482;DHT22;4779;48.062;11.672;2024-02-26T14:29:25;13.00;91.00
9482;DHT22;4779;48.062;11.672;2024-02-26T14:31:52;12.80;91.40
9482;DHT22;4779;48.062;11.672;2024-02-26T14:34:22;12.60;91.30
9482;DHT22;4779;48.062;11.672;2024-02-26T14:36:49;12.40;91.80
9482;DHT22;4779;48.062;11.672;2024-02-26T14:39:16;12.30;92.10
9482;DHT22;4779;48.062;11.672;2024-02-26T14:41:43;12.10;92.40
9482;DHT22;4779;48.062;11.672;2024-02-26T14:44:11;12.00;93.20
9482;DHT22;4779;48.062;11.672;2024-02-26T14:46:38;11.90;93.40
9482;DHT22;4779;48.062;11.672;2024-02-26T14:49:06;11.80;93.80
9482;DHT22;4779;48.062;11.672;2024-02-26T14:51:33;11.70;94.00
9482;DHT22;4779;48.062;11.672;2024-02-26T14:54:00;11.60;94.20
9482;DHT22;4779;48.062;11.672;2024-02-26T14:56:28;11.50;94.20
9482;DHT22;4779;48.062;11.672;2024-02-26T14:58:55;11.50;94.60
9482;DHT22;4779;48.062;11.672;2024-02-26T15:01:24;11.40;94.80
9482;DHT22;4779;48.062;11.672;2024-02-26T15:03:51;11.30;95.00
9482;DHT22;4779;48.062;11.672;2024-02-26T15:06:18;11.20;95.00
9482;DHT22;4779;48.062;11.672;2024-02-26T15:08:45;11.10;95.70
9482;DHT22;4779;48.062;11.672;2024-02-26T15:11:13;11.10;96.20
9482;DHT22;4779;48.062;11.672;2024-02-26T15:13:40;11.00;95.40
9482;DHT22;4779;48.062;11.672;2024-02-26T15:16:07;10.90;95.50
9482;DHT22;4779;48.062;11.672;2024-02-26T15:18:36;10.90;96.00
9482;DHT22;4779;48.062;11.672;2024-02-26T15:21:04;10.80;96.60
9482;DHT22;4779;48.062;11.672;2024-02-26T15:23:32;10.70;96.40
9482;DHT22;4779;48.062;11.672;2024-02-26T15:26:01;10.60;96.50
9482;DHT22;4779;48.062;11.672;2024-02-26T15:28:29;10.60;96.30
9482;DHT22;4779;48.062;11.672;2024-02-26T15:30:56;10.50;96.40
9482;DHT22;4779;48.062;11.672;2024-02-26T15:33:23;10.50;97.10
9482;DHT22;4779;48.062;11.672;2024-02-26T15:35:53;10.50;96.90
9482;DHT22;4779;48.062;11.672;2024-02-26T15:38:21;10.40;97.40
9482;DHT22;4779;48.062;11.672;2024-02-26T15:40:48;10.40;97.20
9482;DHT22;4779;48.062;11.672;2024-02-26T15:43:16;10.30;97.80
9482;DHT22;4779;48.062;11.672;2024-02-26T15:45:45;10.30;97.90
9482;DHT22;4779;48.062;11.672;2024-02-26T15:48:12;10.20;98.40
9482;DHT22;4779;48.062;11.672;2024-02-26T15:50:40;10.20;98.70
9482;DHT22;4779;48.062;11.672;2024-02-26T15:53:09;10.10;98.50
9482;DHT22;4779;48.062;11.672;2024-02-26T15:55:36;10.10;99.10
9482;DHT22;4779;48.062;11.672;2024-02-26T15:58:03;10.00;98.90
9482;DHT22;4779;48.062;11.672;2024-02-26T16:00:34;10.00;99.10
9482;DHT22;4779;48.062;11.672;2024-02-26T16:03:05;9.90;99.00